Time;durP1;ratioP1;P1;durP2;ratioP2;P2;SDS_P1;SDS_P2;PMS_P1;PMS_P2;Temp;Humidity;BMP_temperature;BMP_pressure;BME280_temperature;BME280_humidity;BME280_pressure;Samples;Min_cycle;Max_cycle;Signal;HPM_P1;HPM_P2
2021/12/01 00:01:33;;;;;;;2.58;0.70;;;9.20;99.90;;;;;;5073607;28;20020;-75
2021/12/01 00:03:59;;;;;;;1.40;0.50;;;9.20;99.90;;;;;;5073171;28;20028;-75
2021/12/01 00:06:25;;;;;;;2.47;0.57;;;9.20;99.90;;;;;;5073725;28;20521;-75
2021/12/01 00:08:51;;;;;;;2.08;0.60;;;9.10;99.90;;;;;;5072895;28;20443;-76
2021/12/01 00:11:16;;;;;;;1.10;0.50;;;9.10;99.90;;;;;;5073239;28;20037;-75
2021/12/01 00:13:42;;;;;;;1.65;0.68;;;9.10;99.90;;;;;;5072467;28;20407;-74
2021/12/01 00:16:08;;;;;;;3.40;0.68;;;9.10;99.90;;;;;;5071601;28;20871;-74
2021/12/01 00:18:34;;;;;;;1.55;0.75;;;9.00;99.90;;;;;;5073885;28;20024;-74
2021/12/01 00:21:00;;;;;;;1.15;0.75;;;9.00;99.90;;;;;;5073529;28;20448;-75
2021/12/01 00:23:26;;;;;;;2.90;1.23;;;9.00;99.90;;;;;;5074167;28;20074;-74
2021/12/01 00:25:53;;;;;;;0.80;0.60;;;9.00;99.90;;;;;;5073489;28;20025;-76
2021/12/01 00:28:19;;;;;;;3.17;0.85;;;9.00;99.90;;;;;;5073981;28;20028;-75
2021/12/01 00:30:46;;;;;;;4.18;0.70;;;9.00;99.90;;;;;;5073721;28;20050;-74
2021/12/01 00:33:13;;;;;;;2.38;0.85;;;9.00;99.90;;;;;;5071782;28;20040;-75
2021/12/01 00:35:39;;;;;;;2.67;0.70;;;8.90;99.90;;;;;;5073587;28;20463;-74
2021/12/01 00:38:05;;;;;;;6.28;0.90;;;8.90;99.90;;;;;;5074739;28;20020;-75
2021/12/01 00:40:32;;;;;;;5.82;0.90;;;8.90;99.90;;;;;;5074941;28;20058;-75
2021/12/01 00:42:58;;;;;;;5.10;0.77;;;8.90;99.90;;;;;;5072986;28;20028;-73
2021/12/01 00:45:26;;;;;;;4.10;0.55;;;8.90;99.90;;;;;;5073691;28;20033;-73
2021/12/01 00:47:54;;;;;;;1.88;0.50;;;8.90;99.90;;;;;;5073552;28;20028;-74
2021/12/01 00:50:28;;;;;;;2.90;0.55;;;8.80;99.90;;;;;;5073496;28;20090;-72
2021/12/01 00:52:56;;;;;;;2.50;0.70;;;8.90;99.90;;;;;;5072992;28;20056;-75
2021/12/01 00:55:23;;;;;;;4.65;0.82;;;8.90;99.90;;;;;;5073712;28;20126;-73
2021/12/01 00:57:52;;;;;;;3.65;0.60;;;8.80;99.90;;;;;;5073571;28;20029;-73
2021/12/01 01:00:20;;;;;;;3.55;0.60;;;8.80;99.90;;;;;;5072685;28;20032;-73
2021/12/01 01:02:45;;;;;;;2.83;0.98;;;8.80;99.90;;;;;;5072220;28;20020;-73
2021/12/01 01:05:11;;;;;;;3.88;0.82;;;8.70;99.90;;;;;;5071306;28;20040;-73
2021/12/01 01:07:37;;;;;;;2.83;0.75;;;8.70;99.90;;;;;;5073077;28;20052;-73
2021/12/01 01:10:16;;;;;;;6.07;0.52;;;8.70;99.90;;;;;;5072274;28;20068;-73
2021/12/01 01:18:13;;;;;;;3.22;0.70;;;8.60;99.90;;;;;;5072045;28;20044;-73
2021/12/01 01:20:40;;;;;;;1.67;0.85;;;8.60;99.90;;;;;;5071602;28;20056;-73
2021/12/01 01:23:06;;;;;;;2.58;0.75;;;8.60;99.90;;;;;;5072224;28;20070;-73
2021/12/01 01:25:32;;;;;;;7.47;1.02;;;8.60;99.90;;;;;;5072643;28;20029;-73
2021/12/01 01:27:57;;;;;;;3.72;0.65;;;8.60;99.90;;;;;;5072230;28;20459;-75
2021/12/01 01:30:23;;;;;;;3.83;0.85;;;8.50;99.90;;;;;;5072389;28;20040;-73
2021/12/01 01:32:50;;;;;;;2.58;0.82;;;8.60;99.90;;;;;;5072741;28;20036;-72
2021/12/01 01:35:15;;;;;;;2.85;0.60;;;8.60;99.90;;;;;;5071391;28;20027;-74
2021/12/01 01:37:41;;;;;;;5.25;0.80;;;8.60;99.90;;;;;;5072492;28;20029;-72
2021/12/01 01:40:08;;;;;;;1.85;0.52;;;8.60;99.90;;;;;;5070240;28;20035;-73
2021/12/01 01:42:34;;;;;;;3.55;0.82;;;8.60;99.90;;;;;;5072620;28;20032;-72
2021/12/01 01:45:00;;;;;;;3.42;0.73;;;8.60;99.90;;;;;;5071916;28;20031;-73
2021/12/01 01:47:25;;;;;;;2.50;0.60;;;8.60;99.90;;;;;;5072599;28;20087;-72
2021/12/01 01:49:59;;;;;;;4.93;1.00;;;8.60;99.90;;;;;;5070885;28;20049;-72
2021/12/01 01:52:26;;;;;;;1.98;0.45;;;8.60;99.90;;;;;;5072419;28;20035;-72
2021/12/01 01:54:52;;;;;;;6.00;0.90;;;8.60;99.90;;;;;;5072560;28;20390;-72
2021/12/01 01:57:18;;;;;;;6.55;1.20;;;8.60;99.90;;;;;;5072732;28;20020;-72
2021/12/01 01:59:44;;;;;;;6.60;0.80;;;8.50;99.90;;;;;;5072996;28;20020;-72
2021/12/01 02:02:10;;;;;;;4.13;1.20;;;8.50;99.90;;;;;;5070216;28;20524;-72
2021/12/01 02:04:36;;;;;;;7.75;1.20;;;8.40;99.90;;;;;;5072680;28;20074;-72
2021/12/01 02:07:03;;;;;;;3.83;0.70;;;8.40;99.90;;;;;;5071507;28;20444;-73
2021/12/01 02:09:29;;;;;;;4.10;0.90;;;8.40;99.90;;;;;;5071891;28;20060;-72
2021/12/01 02:11:58;;;;;;;4.30;0.77;;;8.40;99.90;;;;;;5072243;28;20103;-72
2021/12/01 02:14:25;;;;;;;8.02;1.60;;;8.40;99.90;;;;;;5071776;28;20020;-72
2021/12/01 02:16:52;;;;;;;5.05;0.98;;;8.40;99.90;;;;;;5071898;28;20031;-72
2021/12/01 02:19:18;;;;;;;4.75;0.95;;;8.40;99.90;;;;;;5070794;28;20182;-72
2021/12/01 02:21:43;;;;;;;5.82;0.80;;;8.40;99.90;;;;;;5070851;28;20536;-72
2021/12/01 02:24:12;;;;;;;4.82;1.05;;;8.40;99.90;;;;;;5071338;28;20032;-72
2021/12/01 02:26:43;;;;;;;6.93;0.93;;;8.40;99.90;;;;;;5072054;28;20474;-72
2021/12/01 02:29:12;;;;;;;4.38;0.70;;;8.30;99.90;;;;;;5071035;28;20459;-73
2021/12/01 02:31:39;;;;;;;6.25;1.08;;;8.30;99.90;;;;;;5071988;28;20356;-73
2021/12/01 02:34:10;;;;;;;6.13;1.20;;;8.30;99.90;;;;;;5071138;28;20024;-73
2021/12/01 02:36:36;;;;;;;4.25;0.98;;;8.20;99.90;;;;;;5072056;28;20039;-73
2021/12/01 02:39:08;;;;;;;6.70;1.30;;;8.20;99.90;;;;;;5071402;28;20028;-75
2021/12/01 02:41:35;;;;;;;7.40;1.17;;;8.20;99.90;;;;;;5071724;28;20025;-73
2021/12/01 02:44:04;;;;;;;4.20;0.90;;;8.20;99.90;;;;;;5071401;28;20024;-75
2021/12/01 02:46:30;;;;;;;4.65;0.90;;;8.20;99.90;;;;;;5072451;28;20028;-73
2021/12/01 02:48:56;;;;;;;5.03;0.80;;;8.20;99.90;;;;;;5075915;28;20033;-72
2021/12/01 02:51:27;;;;;;;3.10;0.85;;;8.20;99.90;;;;;;5074651;28;20055;-73
2021/12/01 02:53:53;;;;;;;6.05;0.90;;;8.20;99.90;;;;;;5075867;28;20036;-72
2021/12/01 02:56:22;;;;;;;5.65;1.08;;;8.30;99.90;;;;;;5075281;28;20094;-72
2021/12/01 02:58:48;;;;;;;2.13;0.90;;;8.30;99.90;;;;;;5075696;28;20052;-73
2021/12/01 03:01:17;;;;;;;6.53;1.08;;;8.30;99.90;;;;;;5073688;28;20032;-73
2021/12/01 03:03:43;;;;;;;9.85;1.52;;;8.30;99.90;;;;;;5075192;28;20043;-73
2021/12/01 03:06:11;;;;;;;10.35;1.92;;;8.20;99.90;;;;;;5074644;28;20490;-73
2021/12/01 03:08:39;;;;;;;6.57;1.45;;;8.20;99.90;;;;;;5075128;28;20403;-73
2021/12/01 03:11:05;;;;;;;9.57;1.67;;;8.10;99.90;;;;;;5074747;28;20020;-75
2021/12/01 03:13:31;;;;;;;8.55;1.90;;;8.00;99.90;;;;;;5075490;28;20032;-73
2021/12/01 03:15:57;;;;;;;11.82;1.80;;;8.00;99.90;;;;;;5076335;28;20107;-74
2021/12/01 03:18:23;;;;;;;8.48;1.98;;;8.00;99.90;;;;;;5075156;28;20086;-73
2021/12/01 03:20:51;;;;;;;6.00;1.42;;;8.00;99.90;;;;;;5075430;28;20040;-73
2021/12/01 03:23:17;;;;;;;15.93;2.20;;;7.90;99.90;;;;;;5074353;28;20020;-73
2021/12/01 03:25:44;;;;;;;10.95;2.15;;;7.90;99.90;;;;;;5075092;28;20028;-73
2021/12/01 03:28:10;;;;;;;9.10;2.30;;;7.80;99.90;;;;;;5074375;28;20035;-72
2021/12/01 03:30:38;;;;;;;12.02;1.75;;;7.70;99.90;;;;;;5074494;28;20075;-73
2021/12/01 03:33:07;;;;;;;11.15;1.77;;;7.70;99.90;;;;;;5074607;28;20028;-75
2021/12/01 03:35:33;;;;;;;11.05;2.42;;;7.70;99.90;;;;;;5074944;28;20386;-73
2021/12/01 03:37:59;;;;;;;12.85;2.00;;;7.60;99.90;;;;;;5074826;28;20025;-73
2021/12/01 03:40:24;;;;;;;12.75;2.63;;;7.50;99.90;;;;;;5074181;28;20032;-72
2021/12/01 03:42:50;;;;;;;9.40;1.67;;;7.50;99.90;;;;;;5073783;28;20059;-72
2021/12/01 03:45:17;;;;;;;11.45;2.42;;;7.50;99.90;;;;;;5074158;28;20029;-72
2021/12/01 03:47:43;;;;;;;13.55;2.30;;;7.50;99.90;;;;;;5074591;28;20028;-72
2021/12/01 03:50:09;;;;;;;14.65;2.17;;;7.40;99.90;;;;;;5073455;28;20052;-73
2021/12/01 03:52:36;;;;;;;11.40;2.17;;;7.40;99.90;;;;;;5074540;28;20028;-72
2021/12/01 03:55:02;;;;;;;15.27;2.17;;;7.40;99.90;;;;;;5074781;28;20025;-72
2021/12/01 03:57:28;;;;;;;14.88;2.42;;;7.40;99.90;;;;;;5073389;28;20067;-72
2021/12/01 03:59:53;;;;;;;11.32;2.30;;;7.40;99.90;;;;;;5073604;28;20052;-72
2021/12/01 04:02:20;;;;;;;9.43;2.10;;;7.30;99.90;;;;;;5073779;28;20382;-73
2021/12/01 04:04:46;;;;;;;14.48;2.85;;;7.30;99.90;;;;;;5074207;28;20021;-73
2021/12/01 04:07:12;;;;;;;14.57;2.42;;;7.30;99.90;;;;;;5072120;28;20039;-73
2021/12/01 04:09:40;;;;;;;17.15;2.78;;;7.20;99.90;;;;;;5074212;28;20062;-73
2021/12/01 04:12:07;;;;;;;16.25;2.08;;;7.20;99.90;;;;;;5074009;28;20475;-75
2021/12/01 04:14:33;;;;;;;23.67;3.10;;;7.20;99.90;;;;;;5073971;28;20111;-73
2021/12/01 04:16:59;;;;;;;12.85;2.20;;;7.20;99.90;;;;;;5073183;28;20035;-73
2021/12/01 04:19:24;;;;;;;16.40;2.45;;;7.10;99.90;;;;;;5073519;28;20032;-72
2021/12/01 04:21:50;;;;;;;17.63;2.08;;;7.20;99.90;;;;;;5074359;28;20029;-72
2021/12/01 04:24:16;;;;;;;11.45;2.70;;;7.20;99.90;;;;;;5073372;28;20456;-73
2021/12/01 04:26:42;;;;;;;15.45;2.30;;;7.20;99.90;;;;;;5074142;28;20055;-73
2021/12/01 04:29:08;;;;;;;15.52;2.45;;;7.20;99.90;;;;;;5073945;28;20032;-75
2021/12/01 04:31:36;;;;;;;12.90;2.72;;;7.20;99.90;;;;;;5073726;28;20397;-72
2021/12/01 04:34:02;;;;;;;12.73;2.85;;;7.10;99.90;;;;;;5072366;28;20459;-72
2021/12/01 04:36:32;;;;;;;15.27;2.42;;;7.10;99.90;;;;;;5075857;28;20032;-72
2021/12/01 04:38:58;;;;;;;20.23;2.72;;;7.10;99.90;;;;;;5073848;28;20044;-72
2021/12/01 04:41:25;;;;;;;13.73;2.58;;;7.00;99.90;;;;;;5073078;28;20021;-72
2021/12/01 04:43:53;;;;;;;11.45;2.30;;;7.00;99.90;;;;;;5073492;28;20115;-72
2021/12/01 04:46:20;;;;;;;11.13;2.63;;;7.00;99.90;;;;;;5073020;28;20028;-72
2021/12/01 04:48:47;;;;;;;10.52;2.80;;;6.90;99.90;;;;;;5073661;28;20027;-72
2021/12/01 04:51:14;;;;;;;16.00;2.55;;;6.90;99.90;;;;;;5072442;28;20128;-73
2021/12/01 04:53:40;;;;;;;16.38;2.60;;;6.90;99.90;;;;;;5073582;28;20034;-72
2021/12/01 04:56:06;;;;;;;12.15;2.20;;;6.80;99.90;;;;;;5073166;28;20051;-72
2021/12/01 04:58:33;;;;;;;24.02;2.80;;;6.90;99.90;;;;;;5072682;28;20043;-72
2021/12/01 05:01:00;;;;;;;14.25;2.58;;;6.90;99.90;;;;;;5071847;28;20032;-72
2021/12/01 05:03:26;;;;;;;9.93;2.42;;;6.80;99.90;;;;;;5071343;28;20410;-72
2021/12/01 05:05:52;;;;;;;15.68;2.53;;;6.90;99.90;;;;;;5073183;28;20459;-72
2021/12/01 05:08:20;;;;;;;14.95;2.40;;;6.90;99.90;;;;;;5072375;28;20115;-72
2021/12/01 05:10:46;;;;;;;9.45;2.13;;;6.90;99.90;;;;;;5072252;28;20055;-72
2021/12/01 05:13:12;;;;;;;9.02;1.98;;;7.00;99.90;;;;;;5072421;28;20085;-75
2021/12/01 05:15:38;;;;;;;8.80;1.80;;;7.00;99.90;;;;;;5071349;28;20111;-72
2021/12/01 05:18:04;;;;;;;9.88;2.30;;;7.00;99.90;;;;;;5072699;28;20459;-72
2021/12/01 05:20:30;;;;;;;15.75;2.53;;;7.10;99.90;;;;;;5072342;28;20036;-72
2021/12/01 05:22:56;;;;;;;15.07;2.67;;;7.10;99.90;;;;;;5073070;28;20154;-73
2021/12/01 05:25:21;;;;;;;7.70;2.00;;;7.10;99.90;;;;;;5071960;28;20028;-72
2021/12/01 05:27:47;;;;;;;9.63;1.80;;;7.00;99.90;;;;;;5072697;28;20036;-73
2021/12/01 05:30:13;;;;;;;12.65;1.98;;;7.00;99.90;;;;;;5071024;28;20028;-75
2021/12/01 05:32:39;;;;;;;13.18;2.05;;;7.00;99.90;;;;;;5072204;28;20020;-72
2021/12/01 05:35:05;;;;;;;10.20;2.40;;;7.00;99.90;;;;;;5072619;28;20477;-72
2021/12/01 05:37:31;;;;;;;11.07;1.70;;;7.00;99.90;;;;;;5071589;28;20128;-72
2021/12/01 05:39:56;;;;;;;9.35;1.80;;;7.00;99.90;;;;;;5072395;28;20455;-72
2021/12/01 05:42:22;;;;;;;8.88;1.83;;;7.10;99.90;;;;;;5071845;28;20029;-73
2021/12/01 05:44:48;;;;;;;12.45;2.47;;;7.10;99.90;;;;;;5072630;28;20030;-71
2021/12/01 05:47:14;;;;;;;15.00;2.25;;;7.10;99.90;;;;;;5072072;28;20056;-74
2021/12/01 05:49:42;;;;;;;10.25;2.65;;;7.10;99.90;;;;;;5071895;28;20084;-72
2021/12/01 05:52:17;;;;;;;7.95;1.75;;;7.10;99.90;;;;;;5055078;28;20088;-72
2021/12/01 05:54:44;;;;;;;12.80;2.08;;;7.10;99.90;;;;;;5072461;28;20033;-72
2021/12/01 05:57:10;;;;;;;9.25;1.67;;;7.10;99.90;;;;;;5072331;28;20033;-72
2021/12/01 05:59:36;;;;;;;13.20;1.85;;;7.00;99.90;;;;;;5071323;28;20032;-72
2021/12/01 06:02:02;;;;;;;10.18;1.63;;;7.00;99.90;;;;;;5072235;28;20086;-72
2021/12/01 06:04:28;;;;;;;9.80;1.88;;;7.00;99.90;;;;;;5071207;28;20530;-73
2021/12/01 06:06:53;;;;;;;9.38;1.77;;;7.00;99.90;;;;;;5072285;28;20028;-73
2021/12/01 06:09:19;;;;;;;11.52;2.63;;;7.00;99.90;;;;;;5071337;28;20028;-73
2021/12/01 06:11:47;;;;;;;12.38;2.20;;;7.00;99.90;;;;;;5070912;28;20035;-73
2021/12/01 06:14:14;;;;;;;12.02;1.90;;;7.10;99.90;;;;;;5071689;28;20494;-74
2021/12/01 06:16:42;;;;;;;7.43;1.95;;;7.00;99.90;;;;;;5071603;28;20024;-72
2021/12/01 06:19:08;;;;;;;12.68;2.38;;;7.10;99.90;;;;;;5071987;28;20112;-72
2021/12/01 06:21:34;;;;;;;13.07;2.03;;;7.10;99.90;;;;;;5071107;28;20423;-73
2021/12/01 06:23:59;;;;;;;12.55;2.15;;;7.00;99.90;;;;;;5072142;28;20028;-72
2021/12/01 06:26:25;;;;;;;11.10;1.95;;;7.00;99.90;;;;;;5071344;28;20115;-72
2021/12/01 06:28:51;;;;;;;13.63;2.67;;;7.10;99.90;;;;;;5071886;28;20379;-72
2021/12/01 06:31:17;;;;;;;10.38;2.17;;;7.10;99.90;;;;;;5071555;28;20024;-74
2021/12/01 06:33:43;;;;;;;14.10;2.40;;;7.10;99.90;;;;;;5071368;28;20471;-72
2021/12/01 06:36:09;;;;;;;11.00;2.13;;;7.10;99.90;;;;;;5070583;28;20082;-72
2021/12/01 06:38:35;;;;;;;7.55;1.90;;;7.10;99.90;;;;;;5071076;28;20478;-72
2021/12/01 06:41:01;;;;;;;16.67;2.50;;;7.10;99.90;;;;;;5071608;28;20032;-72
2021/12/01 06:43:27;;;;;;;12.25;1.55;;;7.10;99.90;;;;;;5071040;28;20020;-72
2021/12/01 06:45:53;;;;;;;10.15;2.20;;;7.10;99.90;;;;;;5071506;28;20027;-72
2021/12/01 06:48:19;;;;;;;8.68;2.20;;;7.10;99.90;;;;;;5071329;28;20025;-74
2021/12/01 06:50:45;;;;;;;12.00;3.90;;;7.10;99.90;;;;;;5069949;28;20431;-73
2021/12/01 06:53:11;;;;;;;13.38;2.28;;;7.10;99.90;;;;;;5070140;28;20391;-72
2021/12/01 06:55:36;;;;;;;11.93;2.25;;;7.10;99.90;;;;;;5069580;28;20120;-73
2021/12/01 06:58:02;;;;;;;10.38;2.38;;;7.10;99.90;;;;;;5070610;28;20028;-73
2021/12/01 07:00:30;;;;;;;9.05;1.88;;;7.00;99.90;;;;;;5070874;28;20036;-74
2021/12/01 07:02:56;;;;;;;10.55;2.45;;;6.90;99.90;;;;;;5071470;28;20025;-73
2021/12/01 07:05:21;;;;;;;11.68;2.45;;;6.80;99.90;;;;;;5070538;28;20032;-74
2021/12/01 07:07:47;;;;;;;11.50;2.20;;;6.80;99.90;;;;;;5071197;28;20020;-73
2021/12/01 07:10:14;;;;;;;12.98;1.77;;;6.80;99.90;;;;;;5071599;28;20032;-73
2021/12/01 07:12:41;;;;;;;9.50;2.05;;;6.70;99.90;;;;;;5070471;28;20646;-72
2021/12/01 07:15:08;;;;;;;12.30;1.90;;;6.70;99.90;;;;;;5070293;28;20056;-73
2021/12/01 07:17:35;;;;;;;8.63;2.08;;;6.80;99.90;;;;;;5070637;28;20036;-72
2021/12/01 07:20:00;;;;;;;13.75;2.33;;;6.90;99.90;;;;;;5071360;28;20031;-73
2021/12/01 07:22:26;;;;;;;9.43;2.40;;;6.90;99.90;;;;;;5070897;28;20100;-73
2021/12/01 07:24:52;;;;;;;16.02;3.03;;;6.90;99.90;;;;;;5071211;28;20032;-73
2021/12/01 07:27:18;;;;;;;16.80;2.50;;;7.00;99.90;;;;;;5071201;28;20444;-72
2021/12/01 07:29:45;;;;;;;13.25;3.03;;;7.00;99.90;;;;;;5070721;28;20037;-73
2021/12/01 07:32:11;;;;;;;11.48;2.38;;;7.00;99.90;;;;;;5071336;28;20036;-74
2021/12/01 07:34:43;;;;;;;14.95;2.15;;;7.00;99.90;;;;;;5074189;28;20025;-73
2021/12/01 07:37:11;;;;;;;12.45;2.10;;;7.00;99.90;;;;;;5073370;28;20028;-73
2021/12/01 07:39:37;;;;;;;10.10;2.38;;;7.00;99.90;;;;;;5075278;28;20032;-72
2021/12/01 07:42:05;;;;;;;18.90;1.85;;;7.00;99.90;;;;;;5074630;28;20095;-72
2021/12/01 07:44:30;;;;;;;10.20;2.80;;;7.00;99.90;;;;;;5072828;28;20021;-72
2021/12/01 07:46:56;;;;;;;13.63;2.83;;;7.00;99.90;;;;;;5074772;28;20020;-73
2021/12/01 07:49:22;;;;;;;16.75;2.78;;;6.90;99.90;;;;;;5073940;28;20067;-75
2021/12/01 07:51:49;;;;;;;12.02;2.13;;;6.90;99.90;;;;;;5074710;28;20044;-72
2021/12/01 07:54:15;;;;;;;12.85;2.53;;;6.90;99.90;;;;;;5074820;28;20024;-72
2021/12/01 07:56:41;;;;;;;17.17;2.28;;;6.90;99.90;;;;;;5073438;28;20033;-72
2021/12/01 07:59:07;;;;;;;10.07;2.13;;;6.90;99.90;;;;;;5074702;28;20070;-72
2021/12/01 08:01:33;;;;;;;19.20;2.53;;;6.90;99.90;;;;;;5073637;28;20447;-73
2021/12/01 08:03:58;;;;;;;9.10;2.38;;;6.90;99.90;;;;;;5074062;28;20464;-72
2021/12/01 08:06:26;;;;;;;13.40;2.38;;;6.90;99.90;;;;;;5073584;28;20035;-75
2021/12/01 08:08:52;;;;;;;16.85;2.80;;;6.90;99.90;;;;;;5072864;28;20127;-73
2021/12/01 08:11:17;;;;;;;13.18;2.42;;;6.90;99.90;;;;;;5074589;28;20104;-73
2021/12/01 08:13:43;;;;;;;9.65;2.15;;;7.00;99.90;;;;;;5072907;28;20108;-73
2021/12/01 08:16:09;;;;;;;12.43;2.20;;;7.00;99.90;;;;;;5073430;28;20163;-73
2021/12/01 08:18:35;;;;;;;13.75;2.17;;;7.10;99.90;;;;;;5072830;28;20036;-73
2021/12/01 08:21:00;;;;;;;11.23;2.45;;;7.10;99.90;;;;;;5073805;28;20036;-72
2021/12/01 08:23:26;;;;;;;10.13;2.33;;;7.10;99.90;;;;;;5072013;28;20463;-75
2021/12/01 08:25:52;;;;;;;11.70;2.30;;;7.20;99.90;;;;;;5073758;28;20025;-73
2021/12/01 08:28:18;;;;;;;8.93;2.00;;;7.20;99.90;;;;;;5073952;28;20031;-72
2021/12/01 08:30:43;;;;;;;13.02;3.10;;;7.20;99.90;;;;;;5072959;28;20194;-72
2021/12/01 08:33:09;;;;;;;9.93;1.83;;;7.20;99.90;;;;;;5072626;28;20028;-73
2021/12/01 08:35:35;;;;;;;7.07;1.40;;;7.30;99.90;;;;;;5072913;28;20033;-72
2021/12/01 08:38:01;;;;;;;6.82;1.73;;;7.30;99.90;;;;;;5072274;28;20036;-72
2021/12/01 08:40:26;;;;;;;7.25;1.60;;;7.30;99.90;;;;;;5073263;28;20036;-74
2021/12/01 08:42:52;;;;;;;9.25;2.28;;;7.30;99.90;;;;;;5073518;28;20052;-72
2021/12/01 08:45:18;;;;;;;9.75;2.38;;;7.30;99.90;;;;;;5073526;28;20107;-73
2021/12/01 08:47:44;;;;;;;9.48;2.00;;;7.30;99.90;;;;;;5072695;28;20386;-73
2021/12/01 08:50:11;;;;;;;9.23;2.20;;;7.30;99.90;;;;;;5073478;28;20059;-73
2021/12/01 08:52:38;;;;;;;9.65;1.75;;;7.40;99.90;;;;;;5072969;28;20115;-73
2021/12/01 08:55:04;;;;;;;7.45;2.00;;;7.40;99.90;;;;;;5068907;28;20025;-73
2021/12/01 08:57:30;;;;;;;11.38;3.08;;;7.40;99.90;;;;;;5071203;28;20107;-73
2021/12/01 08:59:56;;;;;;;9.82;2.38;;;7.40;99.90;;;;;;5072963;28;20024;-73
2021/12/01 09:02:22;;;;;;;8.75;2.33;;;7.40;99.90;;;;;;5073459;28;20028;-73
2021/12/01 09:04:50;;;;;;;12.45;2.55;;;7.40;99.90;;;;;;5072474;28;20462;-73
2021/12/01 09:07:17;;;;;;;13.93;2.67;;;7.50;99.90;;;;;;5072474;28;20464;-73
2021/12/01 09:09:43;;;;;;;8.27;1.77;;;7.50;99.90;;;;;;5072303;28;20379;-72
2021/12/01 09:12:09;;;;;;;13.95;2.22;;;7.40;99.90;;;;;;5071601;28;20028;-72
2021/12/01 09:14:35;;;;;;;10.60;2.15;;;7.40;99.90;;;;;;5072714;28;20039;-72
2021/12/01 09:17:01;;;;;;;12.75;2.35;;;7.40;99.90;;;;;;5072642;28;20115;-72
2021/12/01 09:19:26;;;;;;;11.95;2.50;;;7.40;99.90;;;;;;5072869;28;20047;-72
2021/12/01 09:21:52;;;;;;;11.77;2.08;;;7.30;99.90;;;;;;5071019;28;20028;-72
2021/12/01 09:24:20;;;;;;;12.10;2.47;;;7.40;99.90;;;;;;5072496;28;20105;-72
2021/12/01 09:26:48;;;;;;;10.02;1.73;;;7.30;99.90;;;;;;5070545;28;20128;-72
2021/12/01 09:29:14;;;;;;;13.95;3.25;;;7.30;99.90;;;;;;5069214;28;20487;-72
2021/12/01 09:31:40;;;;;;;13.23;2.95;;;7.30;99.90;;;;;;5071821;28;20024;-73
2021/12/01 09:34:06;;;;;;;13.90;2.35;;;7.30;99.90;;;;;;5072114;28;20450;-73
2021/12/01 09:36:31;;;;;;;16.65;2.92;;;7.30;99.90;;;;;;5071098;28;20060;-74
2021/12/01 09:38:57;;;;;;;13.88;2.78;;;7.30;99.90;;;;;;5071604;28;20024;-72
2021/12/01 09:41:24;;;;;;;13.65;3.38;;;7.20;99.90;;;;;;5071646;28;20100;-72
2021/12/01 09:43:49;;;;;;;19.20;3.42;;;7.20;99.90;;;;;;5069522;28;20304;-72
2021/12/01 09:46:16;;;;;;;15.23;3.35;;;7.20;99.90;;;;;;5070615;28;20487;-73
2021/12/01 09:48:42;;;;;;;13.38;2.65;;;7.20;99.90;;;;;;5071085;28;20466;-72
2021/12/01 09:51:10;;;;;;;22.00;3.58;;;7.30;99.90;;;;;;5070145;28;20121;-72
2021/12/01 09:53:37;;;;;;;26.02;3.25;;;7.30;99.90;;;;;;5069432;28;20048;-73
2021/12/01 09:56:03;;;;;;;23.75;4.00;;;7.30;99.90;;;;;;5064183;28;20040;-72
2021/12/01 09:58:31;;;;;;;16.17;3.22;;;7.30;99.90;;;;;;5051184;28;20025;-74
2021/12/01 10:01:00;;;;;;;19.17;3.58;;;7.30;99.90;;;;;;5051350;28;20037;-73
2021/12/01 10:03:26;;;;;;;23.95;3.70;;;7.30;99.90;;;;;;5051272;28;20025;-73
2021/12/01 10:05:59;;;;;;;17.77;3.80;;;7.30;99.90;;;;;;5050979;28;20102;-72
2021/12/01 10:08:28;;;;;;;17.30;3.40;;;7.30;99.90;;;;;;5052204;28;20027;-73
2021/12/01 10:10:55;;;;;;;16.50;4.03;;;7.30;99.90;;;;;;5050982;28;20033;-72
2021/12/01 10:13:30;;;;;;;20.38;4.32;;;7.30;99.90;;;;;;5050963;28;20078;-72
2021/12/01 10:15:59;;;;;;;25.00;4.30;;;7.30;99.90;;;;;;5050879;28;20459;-72
2021/12/01 10:18:25;;;;;;;23.90;4.38;;;7.30;99.90;;;;;;5051119;28;20468;-72
2021/12/01 10:21:05;;;;;;;22.88;3.85;;;7.40;99.90;;;;;;5050629;28;20029;-72
2021/12/01 10:23:33;;;;;;;24.40;3.55;;;7.40;99.90;;;;;;5050761;28;20033;-74
2021/12/01 10:26:41;;;;;;;24.00;3.90;;;7.40;99.90;;;;;;5050865;28;20439;-72
2021/12/01 10:29:13;;;;;;;21.67;3.33;;;7.50;99.90;;;;;;5008826;28;20026;-72
2021/12/01 10:31:44;;;;;;;21.25;3.55;;;7.60;99.90;;;;;;5045446;28;20071;-72
2021/12/01 10:34:18;;;;;;;25.17;4.43;;;7.60;99.90;;;;;;5051444;28;20065;-72
2021/12/01 10:36:45;;;;;;;23.85;3.92;;;7.70;99.90;;;;;;5050336;28;20029;-73
2021/12/01 10:39:11;;;;;;;22.15;3.92;;;7.60;99.90;;;;;;5068790;28;20039;-72
2021/12/01 10:41:40;;;;;;;18.60;4.10;;;7.70;99.90;;;;;;5069524;28;20055;-73
2021/12/01 10:44:19;;;;;;;29.67;4.13;;;7.60;99.90;;;;;;5074691;28;20056;-72
2021/12/01 10:46:51;;;;;;;26.00;4.65;;;7.60;99.90;;;;;;5086403;28;20055;-72
2021/12/01 10:49:31;;;;;;;24.20;5.50;;;7.60;99.90;;;;;;5090908;28;20387;-72
2021/12/01 10:51:57;;;;;;;22.98;4.45;;;7.60;99.90;;;;;;5089391;28;20048;-72
2021/12/01 10:54:23;;;;;;;24.50;4.00;;;7.60;99.90;;;;;;5091079;28;20367;-72
2021/12/01 10:57:22;;;;;;;28.05;4.45;;;7.60;99.90;;;;;;5090313;28;20030;-72
2021/12/01 10:59:52;;;;;;;22.65;4.28;;;7.50;99.90;;;;;;5088897;28;20428;-73
2021/12/01 11:02:19;;;;;;;21.73;4.78;;;7.50;99.90;;;;;;5089127;28;20116;-73
2021/12/01 11:04:50;;;;;;;23.58;3.95;;;7.50;99.90;;;;;;5089942;28;20036;-72
2021/12/01 11:07:33;;;;;;;25.73;4.03;;;7.50;99.90;;;;;;5089916;28;20398;-72
2021/12/01 11:10:28;;;;;;;;;;;7.50;99.90;;;;;;5095452;28;20118;-73
2021/12/01 11:13:01;;;;;;;23.35;3.78;;;7.60;99.90;;;;;;5084787;28;19908;-74
2021/12/01 11:15:33;;;;;;;23.83;4.30;;;7.60;99.90;;;;;;5094919;28;20051;-73
2021/12/01 11:18:00;;;;;;;16.08;3.45;;;7.70;99.90;;;;;;5094754;28;20082;-72
2021/12/01 11:20:44;;;;;;;20.58;3.47;;;7.80;99.90;;;;;;5094611;28;20114;-73
2021/12/01 11:23:21;;;;;;;23.05;3.88;;;7.80;99.90;;;;;;5094408;28;20456;-73
2021/12/01 11:25:49;;;;;;;18.25;4.10;;;7.90;99.90;;;;;;5086702;28;20040;-73
2021/12/01 11:28:17;;;;;;;21.20;4.28;;;7.90;99.90;;;;;;5072954;28;20032;-73
2021/12/01 11:30:45;;;;;;;19.48;3.47;;;7.90;99.90;;;;;;5073227;28;20040;-73
2021/12/01 11:33:13;;;;;;;14.93;3.22;;;7.90;99.90;;;;;;5074189;28;20032;-73
2021/12/01 11:35:41;;;;;;;16.75;3.22;;;7.90;99.90;;;;;;5073249;28;20086;-73
2021/12/01 11:38:09;;;;;;;15.60;2.80;;;7.90;99.90;;;;;;5074414;28;20391;-73
2021/12/01 11:40:35;;;;;;;17.48;3.88;;;8.00;99.90;;;;;;5073135;28;20044;-74
2021/12/01 11:43:01;;;;;;;15.43;3.50;;;8.00;99.90;;;;;;5074025;28;20470;-73
2021/12/01 11:45:27;;;;;;;18.05;4.15;;;7.90;99.90;;;;;;5073799;28;20021;-73
2021/12/01 11:47:54;;;;;;;19.75;3.78;;;8.00;99.90;;;;;;5071860;28;20025;-73
2021/12/01 11:50:32;;;;;;;17.15;3.47;;;8.00;99.90;;;;;;5073264;28;20413;-74
2021/12/01 11:53:20;;;;;;;26.05;4.22;;;7.90;99.90;;;;;;5073618;28;20112;-73
2021/12/01 11:55:59;;;;;;;16.95;3.15;;;8.00;99.90;;;;;;5072919;28;20103;-73
2021/12/01 11:58:49;;;;;;;16.90;3.60;;;8.00;99.90;;;;;;5073507;28;20374;-73
2021/12/01 12:01:20;;;;;;;19.30;3.03;;;8.00;99.90;;;;;;5073716;28;20115;-72
2021/12/01 12:04:06;;;;;;;15.95;3.08;;;8.10;99.90;;;;;;5073044;28;20040;-72
2021/12/01 12:06:45;;;;;;;15.45;4.05;;;8.00;99.90;;;;;;5051379;28;20044;-74
2021/12/01 12:09:13;;;;;;;18.85;3.60;;;8.00;99.90;;;;;;5073458;28;20463;-72
2021/12/01 12:11:44;;;;;;;15.77;3.28;;;8.00;99.90;;;;;;5072006;28;20028;-72
2021/12/01 12:14:15;;;;;;;16.88;3.40;;;8.00;99.90;;;;;;5073553;28;20120;-72
2021/12/01 12:16:59;;;;;;;18.02;3.00;;;7.90;99.90;;;;;;5072865;28;20063;-72
2021/12/01 12:19:44;;;;;;;18.08;3.88;;;7.90;99.90;;;;;;5072688;28;20047;-72
2021/12/01 12:22:16;;;;;;;20.80;3.00;;;7.80;99.90;;;;;;5073497;28;20529;-72
2021/12/01 12:24:45;;;;;;;;;;;7.80;99.90;;;;;;5073327;28;20035;-72
2021/12/01 12:27:30;;;;;;;18.60;3.10;;;7.80;99.90;;;;;;5073056;28;19950;-71
2021/12/01 12:29:59;;;;;;;18.45;3.17;;;7.80;99.90;;;;;;5072297;28;20119;-73
2021/12/01 12:32:29;;;;;;;16.55;2.92;;;7.90;99.90;;;;;;5079667;28;20100;-72
2021/12/01 12:34:58;;;;;;;15.25;2.72;;;7.90;99.90;;;;;;5093444;28;20032;-72
2021/12/01 12:37:27;;;;;;;16.35;2.92;;;7.90;99.90;;;;;;5093279;28;20066;-73
2021/12/01 12:39:54;;;;;;;18.77;3.15;;;8.00;99.90;;;;;;5083363;28;20063;-72
2021/12/01 12:42:20;;;;;;;13.00;2.78;;;7.90;99.90;;;;;;5071979;28;20032;-73
2021/12/01 12:44:51;;;;;;;17.05;3.25;;;8.00;99.90;;;;;;5073636;28;20455;-72
2021/12/01 12:47:30;;;;;;;12.13;2.70;;;7.90;99.90;;;;;;5072750;28;20039;-73
2021/12/01 12:50:16;;;;;;;13.10;2.63;;;8.00;99.90;;;;;;5071689;28;20056;-72
2021/12/01 12:52:46;;;;;;;12.25;2.60;;;7.90;99.90;;;;;;5054111;28;20036;-73
2021/12/01 12:55:24;;;;;;;12.93;2.67;;;7.90;99.90;;;;;;5072620;28;20421;-73
2021/12/01 12:57:59;;;;;;;9.57;2.40;;;7.90;99.90;;;;;;5070443;28;20542;-72
2021/12/01 13:00:33;;;;;;;14.93;2.72;;;7.90;99.90;;;;;;5071071;28;20489;-73